Liverpool Bay, Canada
Current Conditions -  °F | °C
As of 7:00 AM on Monday 20 Oct 2014 (Local Time) from CYUB Reporting Station
Blowing Snow Blowing Snow  
Wind Chill: 10°   Ceiling: 1000
Heat Index: 25°   Visibility: 10mi
Dew Point: 19°   Wind: 21mph
Humidity: 80%   Direction: 70°ENE
Pressure: 29.71"   Gusts: 29mph
Location:  69.6°N, 130.9°W
Report Text: CYUB 201300Z 07018G25KT 10SM DRSN OVC010 M04/M07 A2971 RMK ST8-3.6/-5.4/0/5 TRACE LOOSE SLP062
Loading
Personal Weather Stations






























Interactive Weather Map
Tropical Storm Tracking
New forecast layout! Learn more

10-Day Weather Forecast

Advertisements
Track Severe Weather on mobile